KHHV

Hoover Diana

Hoover Diana, Texas, USA
METAR KHHV 191515Z AUTO 22007G18KT 190V270 10SM FEW026 30/24 A3000 RMK A01
Observed Flight Rules
Aug-19 @ 15:15 UTC (24 minutes ago) Visual Flight Rules
Wind Visibility Clouds
220° at 7 knots
 Gusting to 18 knots
10 miles
  • Few at 2,600' AGL
Temperatures Readings
Current 30°C / 86°F
Dewpoint 24°C / 75°F
Humidity 70%
Altimeter 30" Hg
Pressure 1016 hPa
Elevation 25
METAR KHHV 191515Z AUTO 22007G18KT 190V270 10SM FEW026 30/24 A3000 RMK A01
Observed Flight Rules
Aug-19 @ 15:15 UTC
(24 minutes ago)
VFR
Wind Visibility
220° at 7 knots
 Gusting to 18 knots
10 miles
Clouds
  • Few at 2,600' AGL
Temperature Dewpoint
30°C / 86°F 24°C / 75°F
Humidity Altimeter Pressure
70% 30" Hg 1016 hPa